Time;durP1;ratioP1;P1;durP2;ratioP2;P2;SDS_P1;SDS_P2;PMS_P1;PMS_P2;Temp;Humidity;BMP_temperature;BMP_pressure;BME280_temperature;BME280_humidity;BME280_pressure;Samples;Min_cycle;Max_cycle;Signal;HPM_P1;HPM_P2
2023/03/25 00:00:39;;;;;;;;;;;;;;;;;;5094379;28;19945;-63
2023/03/25 00:03:05;;;;;;;;;;;;;;;;;;5094004;28;19920;-63
2023/03/25 00:05:31;;;;;;;;;;;;;;;;;;5092936;28;19927;-63
2023/03/25 00:07:57;;;;;;;;;;;;;;;;;;5107375;28;19920;-63
2023/03/25 00:10:23;;;;;;;;;;;;;;;;;;5094472;28;19920;-63
2023/03/25 00:12:48;;;;;;;;;;;;;;;;;;5093873;28;19924;-63
2023/03/25 00:15:15;;;;;;;;;;;;;;;;;;5092131;28;19928;-63
2023/03/25 00:17:41;;;;;;;;;;;;;;;;;;5093429;28;19920;-63
2023/03/25 00:20:10;;;;;;;;;;;;;;;;;;5090380;28;19945;-63
2023/03/25 00:22:39;;;;;;;;;;;;;;;;;;5086443;28;19924;-63
2023/03/25 00:25:05;;;;;;;;;;;;;;;;;;5085579;28;19931;-63
2023/03/25 00:27:31;;;;;;;;;;;;;;;;;;5093674;28;19924;-63
2023/03/25 00:29:57;;;;;;;;;;;;;;;;;;5093356;28;19920;-63
2023/03/25 00:32:23;;;;;;;;;;;;;;;;;;5087573;28;20423;-62
2023/03/25 00:34:50;;;;;;;;;;;;;;;;;;5078274;28;19921;-63
2023/03/25 00:37:16;;;;;;;;;;;;;;;;;;5089505;28;19923;-63
2023/03/25 00:39:42;;;;;;;;;;;;;;;;;;5094290;28;19928;-63
2023/03/25 00:42:10;;;;;;;;;;;;;;;;;;5084667;28;19920;-63
2023/03/25 00:44:35;;;;;;;;;;;;;;;;;;5092199;28;19959;-62
2023/03/25 00:47:01;;;;;;;;;;;;;;;;;;5086751;28;19967;-63
2023/03/25 00:49:27;;;;;;;;;;;;;;;;;;5089042;28;19923;-62
2023/03/25 00:51:53;;;;;;;;;;;;;;;;;;5092548;28;19973;-64
2023/03/25 00:54:20;;;;;;;;;;;;;;;;;;5093390;28;19970;-62
2023/03/25 00:56:46;;;;;;;;;;;;;;;;;;5090408;28;19971;-62
2023/03/25 00:59:12;;;;;;;;;;;;;;;;;;5092806;28;19963;-62
2023/03/25 01:01:39;;;;;;;;;;;;;;;;;;5078400;28;19921;-62
2023/03/25 01:04:11;;;;;;;;;;;;;;;;;;5092668;28;19951;-62
2023/03/25 01:06:37;;;;;;;;;;;;;;;;;;5078559;28;19924;-62
2023/03/25 01:09:03;;;;;;;;;;;;;;;;;;5077554;28;19928;-63
2023/03/25 01:11:30;;;;;;;;;;;;;;;;;;5085902;28;19931;-62
2023/03/25 01:13:55;;;;;;;;;;;;;;;;;;5092235;28;20348;-62
2023/03/25 01:16:21;;;;;;;;;;;;;;;;;;5096849;28;19931;-62
2023/03/25 01:18:47;;;;;;;;;;;;;;;;;;5089438;28;19920;-62
2023/03/25 01:21:13;;;;;;;;;;;;;;;;;;5091114;28;19924;-62
2023/03/25 01:23:39;;;;;;;;;;;;;;;;;;5091340;28;20010;-62
2023/03/25 01:26:05;;;;;;;;;;;;;;;;;;5068021;28;20007;-62
2023/03/25 01:28:31;;;;;;;;;;;;;;;;;;5093021;28;20043;-62
2023/03/25 01:30:57;;;;;;;;;;;;;;;;;;5087279;28;19924;-62
2023/03/25 01:33:23;;;;;;;;;;;;;;;;;;5092238;28;19939;-62
2023/03/25 01:35:49;;;;;;;;;;;;;;;;;;5092377;28;19920;-62
2023/03/25 01:38:15;;;;;;;;;;;;;;;;;;5092667;28;20661;-62
2023/03/25 01:40:40;;;;;;;;;;;;;;;;;;5095366;28;19951;-62
2023/03/25 01:43:06;;;;;;;;;;;;;;;;;;5091087;28;20016;-62
2023/03/25 01:45:32;;;;;;;;;;;;;;;;;;5092065;28;19928;-62
2023/03/25 01:47:59;;;;;;;;;;;;;;;;;;5091233;28;19924;-62
2023/03/25 01:50:27;;;;;;;;;;;;;;;;;;5083438;28;19994;-62
2023/03/25 01:52:53;;;;;;;;;;;;;;;;;;5090792;28;19924;-62
2023/03/25 01:55:22;;;;;;;;;;;;;;;;;;5089293;28;19920;-62
2023/03/25 01:57:48;;;;;;;;;;;;;;;;;;5082500;28;20380;-62
2023/03/25 02:00:15;;;;;;;;;;;;;;;;;;5091513;28;20303;-62
2023/03/25 02:02:40;;;;;;;;;;;;;;;;;;5090222;28;19991;-62
2023/03/25 02:05:09;;;;;;;;;;;;;;;;;;5090211;28;20004;-62
2023/03/25 02:07:35;;;;;;;;;;;;;;;;;;5091035;28;19971;-63
2023/03/25 02:10:01;;;;;;;;;;;;;;;;;;5092119;28;19991;-62
2023/03/25 02:12:27;;;;;;;;;;;;;;;;;;5091353;28;20010;-62
2023/03/25 02:14:53;;;;;;;;;;;;;;;;;;5089456;28;19920;-62
2023/03/25 02:17:19;;;;;;;;;;;;;;;;;;5091129;28;19924;-62
2023/03/25 02:19:45;;;;;;;;;;;;;;;;;;5092007;28;19931;-62
2023/03/25 02:22:13;;;;;;;;;;;;;;;;;;5117157;27;19923;-62
2023/03/25 02:24:42;;;;;;;;;;;;;;;;;;5083599;28;19920;-62
2023/03/25 02:27:13;;;;;;;;;;;;;;;;;;5079444;28;19924;-62
2023/03/25 02:29:38;;;;;;;;;;;;;;;;;;5092352;28;20014;-62
2023/03/25 02:32:04;;;;;;;;;;;;;;;;;;5087806;28;20018;-62
2023/03/25 02:34:30;;;;;;;;;;;;;;;;;;5079889;28;19924;-62
2023/03/25 02:36:56;;;;;;;;;;;;;;;;;;5089740;28;19920;-62
2023/03/25 02:39:22;;;;;;;;;;;;;;;;;;5086787;28;19975;-62
2023/03/25 02:41:48;;;;;;;;;;;;;;;;;;5071192;28;20018;-62
2023/03/25 02:44:14;;;;;;;;;;;;;;;;;;5091538;28;20048;-62
2023/03/25 02:46:40;;;;;;;;;;;;;;;;;;5091308;28;19963;-62
2023/03/25 02:49:06;;;;;;;;;;;;;;;;;;5090254;28;19928;-62
2023/03/25 02:51:32;;;;;;;;;;;;;;;;;;5092355;28;20303;-61
2023/03/25 02:53:57;;;;;;;;;;;;;;;;;;5088105;28;19935;-61
2023/03/25 02:56:24;;;;;;;;;;;;;;;;;;5091860;28;20536;-61
2023/03/25 02:58:50;;;;;;;;;;;;;;;;;;5075464;28;20396;-61
2023/03/25 03:01:16;;;;;;;;;;;;;;;;;;5090113;28;19920;-62
2023/03/25 03:03:42;;;;;;;;;;;;;;;;;;5091493;28;19935;-62
2023/03/25 03:06:08;;;;;;;;;;;;;;;;;;5091058;28;19965;-62
2023/03/25 03:08:34;;;;;;;;;;;;;;;;;;5091030;28;20340;-62
2023/03/25 03:11:00;;;;;;;;;;;;;;;;;;5089487;28;19924;-62
2023/03/25 03:13:26;;;;;;;;;;;;;;;;;;5102984;28;19932;-62
2023/03/25 03:15:51;;;;;;;;;;;;;;;;;;5091546;28;20361;-62
2023/03/25 03:18:17;;;;;;;;;;;;;;;;;;5073338;28;19927;-62
2023/03/25 03:20:43;;;;;;;;;;;;;;;;;;5092244;28;19920;-62
2023/03/25 03:23:09;;;;;;;;;;;;;;;;;;5094096;28;19920;-62
2023/03/25 03:25:35;;;;;;;;;;;;;;;;;;5093100;28;19920;-62
2023/03/25 03:28:03;;;;;;;;;;;;;;;;;;5088567;28;19935;-62
2023/03/25 03:30:31;;;;;;;;;;;;;;;;;;5094932;28;20255;-62
2023/03/25 03:32:59;;;;;;;;;;;;;;;;;;5091761;28;19928;-62
2023/03/25 03:35:25;;;;;;;;;;;;;;;;;;5093242;28;19920;-62
2023/03/25 03:37:51;;;;;;;;;;;;;;;;;;5094594;28;19997;-62
2023/03/25 03:40:17;;;;;;;;;;;;;;;;;;5094750;28;19920;-62
2023/03/25 03:42:43;;;;;;;;;;;;;;;;;;5092730;28;19920;-62
2023/03/25 03:45:09;;;;;;;;;;;;;;;;;;5090972;28;19977;-62
2023/03/25 03:47:35;;;;;;;;;;;;;;;;;;5093139;28;20391;-62
2023/03/25 03:50:01;;;;;;;;;;;;;;;;;;5093368;28;19943;-62
2023/03/25 03:52:27;;;;;;;;;;;;;;;;;;5081774;28;19967;-62
2023/03/25 03:54:53;;;;;;;;;;;;;;;;;;5092222;28;20482;-62
2023/03/25 03:57:20;;;;;;;;;;;;;;;;;;5089093;28;19924;-62
2023/03/25 03:59:46;;;;;;;;;;;;;;;;;;5092047;28;19920;-62
2023/03/25 04:02:13;;;;;;;;;;;;;;;;;;5094753;28;19924;-62
2023/03/25 04:04:41;;;;;;;;;;;;;;;;;;5092501;28;19931;-62
2023/03/25 04:07:09;;;;;;;;;;;;;;;;;;5109602;27;20046;-62
2023/03/25 04:09:39;;;;;;;;;;;;;;;;;;5093496;28;20439;-62
2023/03/25 04:12:05;;;;;;;;;;;;;;;;;;5094302;28;19973;-62
2023/03/25 04:14:31;;;;;;;;;;;;;;;;;;5091659;28;19924;-62
2023/03/25 04:16:58;;;;;;;;;;;;;;;;;;5092794;28;19924;-62
2023/03/25 04:19:24;;;;;;;;;;;;;;;;;;5122369;27;19920;-62
2023/03/25 04:21:50;;;;;;;;;;;;;;;;;;5094298;28;19921;-62
2023/03/25 04:24:18;;;;;;;;;;;;;;;;;;5091069;28;19920;-62
2023/03/25 04:26:44;;;;;;;;;;;;;;;;;;5092355;28;20113;-62
2023/03/25 04:29:12;;;;;;;;;;;;;;;;;;5093631;28;20444;-62
2023/03/25 04:31:45;;;;;;;;;;;;;;;;;;5091435;28;19920;-62
2023/03/25 04:34:12;;;;;;;;;;;;;;;;;;5083291;28;19924;-62
2023/03/25 04:36:40;;;;;;;;;;;;;;;;;;5086998;28;19930;-62
2023/03/25 04:39:06;;;;;;;;;;;;;;;;;;5093138;28;20322;-62
2023/03/25 04:41:32;;;;;;;;;;;;;;;;;;5090556;28;19970;-62
2023/03/25 04:43:58;;;;;;;;;;;;;;;;;;5080440;28;19920;-62
2023/03/25 04:46:24;;;;;;;;;;;;;;;;;;5092425;28;19959;-62
2023/03/25 04:48:52;;;;;;;;;;;;;;;;;;5088895;28;20592;-62
2023/03/25 04:51:18;;;;;;;;;;;;;;;;;;5092029;28;19965;-63
2023/03/25 04:53:44;;;;;;;;;;;;;;;;;;5089394;28;19928;-64
2023/03/25 04:56:14;;;;;;;;;;;;;;;;;;5093400;28;19920;-62
2023/03/25 04:58:41;;;;;;;;;;;;;;;;;;5092780;28;20319;-62
2023/03/25 05:01:10;;;;;;;;;;;;;;;;;;5087217;28;19975;-62
2023/03/25 05:03:38;;;;;;;;;;;;;;;;;;5092019;28;19967;-63
2023/03/25 05:06:04;;;;;;;;;;;;;;;;;;5083425;28;19967;-62
2023/03/25 05:08:30;;;;;;;;;;;;;;;;;;5072267;28;19956;-62
2023/03/25 05:10:56;;;;;;;;;;;;;;;;;;5073119;28;19927;-63
2023/03/25 05:13:22;;;;;;;;;;;;;;;;;;5076503;28;19928;-62
2023/03/25 05:15:48;;;;;;;;;;;;;;;;;;5073013;28;19987;-62
2023/03/25 05:18:14;;;;;;;;;;;;;;;;;;5052451;28;19921;-62
2023/03/25 05:20:40;;;;;;;;;;;;;;;;;;5070832;28;19974;-62
2023/03/25 05:23:10;;;;;;;;;;;;;;;;;;5072595;28;19920;-63
2023/03/25 05:25:36;;;;;;;;;;;;;;;;;;5056573;28;19978;-63
2023/03/25 05:28:04;;;;;;;;;;;;;;;;;;5059879;28;20444;-63
2023/03/25 05:30:31;;;;;;;;;;;;;;;;;;5065766;28;19924;-63
2023/03/25 05:32:58;;;;;;;;;;;;;;;;;;5071076;28;19971;-62
2023/03/25 05:35:25;;;;;;;;;;;;;;;;;;5072572;28;20430;-63
2023/03/25 05:37:51;;;;;;;;;;;;;;;;;;5073218;28;19920;-63
2023/03/25 05:40:17;;;;;;;;;;;;;;;;;;5072293;28;19947;-62
2023/03/25 05:42:47;;;;;;;;;;;;;;;;;;5072744;28;20369;-62
2023/03/25 05:45:14;;;;;;;;;;;;;;;;;;5065704;28;19925;-63
2023/03/25 05:47:40;;;;;;;;;;;;;;;;;;5061349;28;19966;-63
2023/03/25 05:50:07;;;;;;;;;;;;;;;;;;5077309;28;19928;-63
2023/03/25 05:52:33;;;;;;;;;;;;;;;;;;5073258;28;19935;-63
2023/03/25 05:54:58;;;;;;;;;;;;;;;;;;5054498;28;19920;-64
2023/03/25 05:57:24;;;;;;;;;;;;;;;;;;5084085;28;19928;-63
2023/03/25 05:59:50;;;;;;;;;;;;;;;;;;5086823;28;20416;-63
2023/03/25 06:02:16;;;;;;;;;;;;;;;;;;5072201;28;19964;-63
2023/03/25 06:04:42;;;;;;;;;;;;;;;;;;5085356;28;19930;-63
2023/03/25 06:07:12;;;;;;;;;;;;;;;;;;5081601;28;20391;-63
2023/03/25 06:09:44;;;;;;;;;;;;;;;;;;5090798;28;19926;-61
2023/03/25 06:12:10;;;;;;;;;;;;;;;;;;5092374;28;19924;-64
2023/03/25 06:14:36;;;;;;;;;;;;;;;;;;5092063;28;19947;-64
2023/03/25 06:17:02;;;;;;;;;;;;;;;;;;5091167;28;19963;-62
2023/03/25 06:19:28;;;;;;;;;;;;;;;;;;5091593;28;19926;-63
2023/03/25 06:21:54;;;;;;;;;;;;;;;;;;5092717;28;19920;-62
2023/03/25 06:24:21;;;;;;;;;;;;;;;;;;5090242;28;19965;-62
2023/03/25 06:26:47;;;;;;;;;;;;;;;;;;5091580;28;19920;-63
2023/03/25 06:29:12;;;;;;;;;;;;;;;;;;5091636;28;19932;-62
2023/03/25 06:31:38;;;;;;;;;;;;;;;;;;5091156;28;20362;-62
2023/03/25 06:34:04;;;;;;;;;;;;;;;;;;5077932;28;19972;-62
2023/03/25 06:36:31;;;;;;;;;;;;;;;;;;5081701;28;20254;-62
2023/03/25 06:38:57;;;;;;;;;;;;;;;;;;5089673;28;20426;-62
2023/03/25 06:41:24;;;;;;;;;;;;;;;;;;5090414;28;19920;-62
2023/03/25 06:43:50;;;;;;;;;;;;;;;;;;5091394;28;19923;-62
2023/03/25 06:46:16;;;;;;;;;;;;;;;;;;5092402;28;20426;-63
2023/03/25 06:48:42;;;;;;;;;;;;;;;;;;5086868;28;19924;-62
2023/03/25 06:51:08;;;;;;;;;;;;;;;;;;5087877;28;20364;-62
2023/03/25 06:53:34;;;;;;;;;;;;;;;;;;5092241;28;19928;-62
2023/03/25 06:55:59;;;;;;;;;;;;;;;;;;5094603;28;19985;-62
2023/03/25 06:58:33;;;;;;;;;;;;;;;;;;5096517;28;19927;-62
2023/03/25 07:01:02;;;;;;;;;;;;;;;;;;5091941;28;20381;-62
2023/03/25 07:03:28;;;;;;;;;;;;;;;;;;5076001;28;19924;-63
2023/03/25 07:05:54;;;;;;;;;;;;;;;;;;5075936;28;19925;-62
2023/03/25 07:08:20;;;;;;;;;;;;;;;;;;5074599;28;20031;-62
2023/03/25 07:10:46;;;;;;;;;;;;;;;;;;5090740;28;20011;-63
2023/03/25 07:13:12;;;;;;;;;;;;;;;;;;5096242;28;19935;-63
2023/03/25 07:15:38;;;;;;;;;;;;;;;;;;5096238;28;19927;-63
2023/03/25 07:18:04;;;;;;;;;;;;;;;;;;5094481;28;20354;-63
2023/03/25 07:20:30;;;;;;;;;;;;;;;;;;5103759;28;20405;-63
2023/03/25 07:22:55;;;;;;;;;;;;;;;;;;5095333;28;20001;-63
2023/03/25 07:25:21;;;;;;;;;;;;;;;;;;5076684;28;20373;-63
2023/03/25 07:27:47;;;;;;;;;;;;;;;;;;5094930;28;19931;-63
2023/03/25 07:30:13;;;;;;;;;;;;;;;;;;5094278;28;20355;-63
2023/03/25 07:32:39;;;;;;;;;;;;;;;;;;5094297;28;19924;-63
2023/03/25 07:35:05;;;;;;;;;;;;;;;;;;5091761;28;19920;-63
2023/03/25 07:37:31;;;;;;;;;;;;;;;;;;5094792;28;19924;-63
2023/03/25 07:39:57;;;;;;;;;;;;;;;;;;5095585;28;19957;-63
2023/03/25 07:42:23;;;;;;;;;;;;;;;;;;5094219;28;19928;-63
2023/03/25 07:44:49;;;;;;;;;;;;;;;;;;5094629;28;20358;-63
2023/03/25 07:47:15;;;;;;;;;;;;;;;;;;5070114;28;19928;-63
2023/03/25 07:49:41;;;;;;;;;;;;;;;;;;5094662;28;19920;-63
2023/03/25 07:52:07;;;;;;;;;;;;;;;;;;5093685;28;19950;-62
2023/03/25 07:54:32;;;;;;;;;;;;;;;;;;5094896;28;19931;-62
2023/03/25 07:56:59;;;;;;;;;;;;;;;;;;5094450;28;19931;-62
2023/03/25 07:59:25;;;;;;;;;;;;;;;;;;5095912;28;19927;-63
2023/03/25 08:01:51;;;;;;;;;;;;;;;;;;5094786;28;20005;-62
2023/03/25 08:04:16;;;;;;;;;;;;;;;;;;5093241;28;19962;-62
2023/03/25 08:06:42;;;;;;;;;;;;;;;;;;5082947;28;20430;-63
2023/03/25 08:09:08;;;;;;;;;;;;;;;;;;5093210;28;19920;-63
2023/03/25 08:11:34;;;;;;;;;;;;;;;;;;5094445;28;20285;-62
2023/03/25 08:14:00;;;;;;;;;;;;;;;;;;5087575;28;19928;-62
2023/03/25 08:16:26;;;;;;;;;;;;;;;;;;5075727;28;19921;-63
2023/03/25 08:18:52;;;;;;;;;;;;;;;;;;5087314;28;20274;-63
2023/03/25 08:21:23;;;;;;;;;;;;;;;;;;5079127;28;20077;-63
2023/03/25 08:23:49;;;;;;;;;;;;;;;;;;5093404;28;20594;-63
2023/03/25 08:26:15;;;;;;;;;;;;;;;;;;5090931;28;19970;-65
2023/03/25 08:28:41;;;;;;;;;;;;;;;;;;5092722;28;19970;-63
2023/03/25 08:31:08;;;;;;;;;;;;;;;;;;5074363;28;19920;-63
2023/03/25 08:33:39;;;;;;;;;;;;;;;;;;5092408;28;20368;-64
2023/03/25 08:36:05;;;;;;;;;;;;;;;;;;5092177;28;19942;-64
2023/03/25 08:38:31;;;;;;;;;;;;;;;;;;5091058;28;20428;-64
2023/03/25 08:40:57;;;;;;;;;;;;;;;;;;5091023;28;19926;-63
2023/03/25 08:43:23;;;;;;;;;;;;;;;;;;5092322;28;20417;-65
2023/03/25 08:45:49;;;;;;;;;;;;;;;;;;5093553;28;19946;-64
2023/03/25 08:48:15;;;;;;;;;;;;;;;;;;5092230;28;19920;-64
2023/03/25 08:50:41;;;;;;;;;;;;;;;;;;5093556;28;19920;-63
2023/03/25 08:53:07;;;;;;;;;;;;;;;;;;5085396;28;19932;-63
2023/03/25 08:55:32;;;;;;;;;;;;;;;;;;5068641;28;19965;-63
2023/03/25 08:57:58;;;;;;;;;;;;;;;;;;5093109;28;20010;-64
2023/03/25 09:00:26;;;;;;;;;;;;;;;;;;5092889;28;19965;-63
2023/03/25 09:02:52;;;;;;;;;;;;;;;;;;5091907;28;20480;-63
2023/03/25 09:05:18;;;;;;;;;;;;;;;;;;5092949;28;19999;-63
2023/03/25 09:07:44;;;;;;;;;;;;;;;;;;5091606;28;19966;-63
2023/03/25 09:10:11;;;;;;;;;;;;;;;;;;5093467;28;19997;-64
2023/03/25 09:12:37;;;;;;;;;;;;;;;;;;5092870;28;19928;-63
2023/03/25 09:15:03;;;;;;;;;;;;;;;;;;5089191;28;20064;-64
2023/03/25 09:17:29;;;;;;;;;;;;;;;;;;5088034;28;19963;-64
2023/03/25 09:19:55;;;;;;;;;;;;;;;;;;5091242;28;19974;-63
2023/03/25 09:22:21;;;;;;;;;;;;;;;;;;5090084;28;19972;-64
2023/03/25 09:24:47;;;;;;;;;;;;;;;;;;5089855;28;19920;-64
2023/03/25 09:27:13;;;;;;;;;;;;;;;;;;5075115;28;20468;-63
2023/03/25 09:29:39;;;;;;;;;;;;;;;;;;5091753;28;19928;-63
2023/03/25 09:32:08;;;;;;;;;;;;;;;;;;5090199;28;21319;-63
2023/03/25 09:34:34;;;;;;;;;;;;;;;;;;5078170;22;20358;-67
2023/03/25 09:37:02;;;;;;;;;;;;;;;;;;5034193;28;19952;-67
2023/03/25 09:39:27;;;;;;;;;;;;;;;;;;5033566;28;19968;-67
2023/03/25 09:41:53;;;;;;;;;;;;;;;;;;5033746;28;19995;-66
2023/03/25 09:44:19;;;;;;;;;;;;;;;;;;5040669;28;19924;-66
2023/03/25 09:46:45;;;;;;;;;;;;;;;;;;5071516;28;19920;-67
2023/03/25 09:49:11;;;;;;;;;;;;;;;;;;5053419;28;19920;-67
2023/03/25 09:51:37;;;;;;;;;;;;;;;;;;5020279;28;19990;-67
2023/03/25 09:54:03;;;;;;;;;;;;;;;;;;5051106;28;19933;-67
2023/03/25 09:56:29;;;;;;;;;;;;;;;;;;5033361;28;19924;-67
2023/03/25 09:58:55;;;;;;;;;;;;;;;;;;5051183;28;19921;-67
2023/03/25 10:01:21;;;;;;;;;;;;;;;;;;5033336;28;19924;-66
2023/03/25 10:03:47;;;;;;;;;;;;;;;;;;5051042;28;19944;-67
2023/03/25 10:06:12;;;;;;;;;;;;;;;;;;5054916;28;19924;-67
2023/03/25 10:08:38;;;;;;;;;;;;;;;;;;5042441;28;20010;-67
2023/03/25 10:11:04;;;;;;;;;;;;;;;;;;5051101;28;20583;-67
2023/03/25 10:13:30;;;;;;;;;;;;;;;;;;5060791;28;19928;-67
2023/03/25 10:15:56;;;;;;;;;;;;;;;;;;5071258;28;19920;-67
2023/03/25 10:18:22;;;;;;;;;;;;;;;;;;5067652;28;20133;-67
2023/03/25 10:20:48;;;;;;;;;;;;;;;;;;5070859;28;20270;-67
2023/03/25 10:23:14;;;;;;;;;;;;;;;;;;5069456;28;19960;-68
2023/03/25 10:25:40;;;;;;;;;;;;;;;;;;5066820;28;20304;-67
2023/03/25 10:28:07;;;;;;;;;;;;;;;;;;5037446;28;19920;-67
2023/03/25 10:30:34;;;;;;;;;;;;;;;;;;5075096;28;19924;-67
2023/03/25 10:33:00;;;;;;;;;;;;;;;;;;5070467;28;19931;-66
2023/03/25 10:35:26;;;;;;;;;;;;;;;;;;5004267;28;1763611;-67
2023/03/25 10:37:52;;;;;;;;;;;;;;;;;;5058045;28;19921;-67
2023/03/25 10:40:18;;;;;;;;;;;;;;;;;;5081496;28;20290;-67
2023/03/25 10:42:44;;;;;;;;;;;;;;;;;;5064136;28;19951;-67
2023/03/25 10:45:10;;;;;;;;;;;;;;;;;;5053591;28;19929;-67
2023/03/25 10:47:36;;;;;;;;;;;;;;;;;;5089915;28;19920;-67
2023/03/25 10:50:03;;;;;;;;;;;;;;;;;;5088892;28;19927;-67
2023/03/25 10:52:29;;;;;;;;;;;;;;;;;;5089104;28;19928;-67
2023/03/25 10:54:55;;;;;;;;;;;;;;;;;;5057723;28;19950;-67
2023/03/25 10:57:21;;;;;;;;;;;;;;;;;;5062975;28;19932;-67
2023/03/25 10:59:47;;;;;;;;;;;;;;;;;;5076159;28;19921;-68
2023/03/25 11:02:12;;;;;;;;;;;;;;;;;;5081040;28;19924;-67
2023/03/25 11:04:40;;;;;;;;;;;;;;;;;;5063204;28;19920;-68
2023/03/25 11:07:07;;;;;;;;;;;;;;;;;;5087920;28;20003;-68
2023/03/25 11:09:35;;;;;;;;;;;;;;;;;;5070689;28;20307;-67
2023/03/25 11:12:01;;;;;;;;;;;;;;;;;;5090378;28;19928;-67
2023/03/25 11:14:27;;;;;;;;;;;;;;;;;;5082433;28;20358;-67
2023/03/25 11:16:53;;;;;;;;;;;;;;;;;;5076412;28;19924;-67
2023/03/25 11:19:19;;;;;;;;;;;;;;;;;;5078172;28;20014;-67
2023/03/25 11:21:45;;;;;;;;;;;;;;;;;;5074298;28;19963;-67
2023/03/25 11:24:11;;;;;;;;;;;;;;;;;;5071190;28;20001;-67
2023/03/25 11:26:37;;;;;;;;;;;;;;;;;;5070290;28;20031;-67
2023/03/25 11:29:02;;;;;;;;;;;;;;;;;;5088510;28;19928;-67
2023/03/25 11:31:29;;;;;;;;;;;;;;;;;;5084151;28;20265;-67
2023/03/25 11:33:55;;;;;;;;;;;;;;;;;;5089360;28;19930;-68
2023/03/25 11:36:21;;;;;;;;;;;;;;;;;;5081950;28;19920;-68
2023/03/25 11:38:47;;;;;;;;;;;;;;;;;;5047283;28;19950;-67
2023/03/25 11:41:13;;;;;;;;;;;;;;;;;;5086302;28;19924;-67
2023/03/25 11:43:39;;;;;;;;;;;;;;;;;;5068898;28;20352;-67
2023/03/25 11:46:05;;;;;;;;;;;;;;;;;;5085003;28;19924;-67
2023/03/25 11:48:31;;;;;;;;;;;;;;;;;;5087627;28;19920;-67
2023/03/25 11:50:57;;;;;;;;;;;;;;;;;;5084191;28;19920;-67
2023/03/25 11:53:23;;;;;;;;;;;;;;;;;;5079497;28;19935;-67
2023/03/25 11:55:49;;;;;;;;;;;;;;;;;;5072083;28;20393;-67
2023/03/25 11:58:15;;;;;;;;;;;;;;;;;;5057814;28;19920;-67
2023/03/25 12:00:41;;;;;;;;;;;;;;;;;;5084787;28;20018;-67
2023/03/25 12:03:06;;;;;;;;;;;;;;;;;;5065241;28;19972;-68
2023/03/25 12:05:32;;;;;;;;;;;;;;;;;;5094651;28;19932;-67
2023/03/25 12:07:58;;;;;;;;;;;;;;;;;;5086141;28;20007;-67
2023/03/25 12:10:24;;;;;;;;;;;;;;;;;;5082533;28;20564;-67
2023/03/25 12:12:50;;;;;;;;;;;;;;;;;;5081494;28;19924;-66
2023/03/25 12:15:16;;;;;;;;;;;;;;;;;;5073139;28;20271;-66
2023/03/25 12:17:42;;;;;;;;;;;;;;;;;;5085226;28;20018;-63
2023/03/25 12:20:10;;;;;;;;;;;;;;;;;;5077920;28;20012;-63
2023/03/25 12:22:36;;;;;;;;;;;;;;;;;;5069178;28;19920;-63
2023/03/25 12:25:02;;;;;;;;;;;;;;;;;;5066051;28;19966;-63
2023/03/25 12:27:28;;;;;;;;;;;;;;;;;;5064837;28;20007;-63
2023/03/25 12:29:54;;;;;;;;;;;;;;;;;;5093363;28;20078;-64
2023/03/25 12:32:20;;;;;;;;;;;;;;;;;;5075310;28;19974;-64
2023/03/25 12:34:48;;;;;;;;;;;;;;;;;;5063686;28;20016;-64
2023/03/25 12:37:14;;;;;;;;;;;;;;;;;;5095144;28;20374;-64
2023/03/25 12:39:39;;;;;;;;;;;;;;;;;;5068182;28;19970;-64
2023/03/25 12:42:06;;;;;;;;;;;;;;;;;;5078875;28;19971;-63
2023/03/25 12:44:32;;;;;;;;;;;;;;;;;;5089009;28;19927;-63
2023/03/25 12:46:58;;;;;;;;;;;;;;;;;;5061067;28;19924;-64
2023/03/25 12:49:24;;;;;;;;;;;;;;;;;;5074786;28;20384;-64
2023/03/25 12:51:50;;;;;;;;;;;;;;;;;;5084787;28;20393;-63
2023/03/25 12:54:16;;;;;;;;;;;;;;;;;;5089086;28;19990;-64
2023/03/25 12:56:41;;;;;;;;;;;;;;;;;;5056584;28;19925;-64
2023/03/25 12:59:07;;;;;;;;;;;;;;;;;;5069323;28;20011;-63
2023/03/25 13:01:35;;;;;;;;;;;;;;;;;;5078028;28;20285;-64
2023/03/25 13:04:01;;;;;;;;;;;;;;;;;;5074540;28;20369;-63
2023/03/25 13:06:29;;;;;;;;;;;;;;;;;;5080726;28;19943;-64
2023/03/25 13:08:55;;;;;;;;;;;;;;;;;;5073303;28;20400;-63
2023/03/25 13:11:21;;;;;;;;;;;;;;;;;;5063020;28;20019;-63
2023/03/25 13:13:47;;;;;;;;;;;;;;;;;;5049443;28;20369;-63
2023/03/25 13:16:13;;;;;;;;;;;;;;;;;;5085485;28;20044;-63
2023/03/25 13:18:39;;;;;;;;;;;;;;;;;;5072561;28;19935;-63
2023/03/25 13:21:07;;;;;;;;;;;;;;;;;;5079122;28;19924;-63
2023/03/25 13:23:33;;;;;;;;;;;;;;;;;;5074118;28;19924;-64
2023/03/25 13:25:59;;;;;;;;;;;;;;;;;;5057580;28;20255;-63
2023/03/25 13:28:25;;;;;;;;;;;;;;;;;;5079191;28;20065;-63
2023/03/25 13:30:51;;;;;;;;;;;;;;;;;;5070183;28;19920;-63
2023/03/25 13:33:17;;;;;;;;;;;;;;;;;;5075927;28;19928;-62
2023/03/25 13:35:43;;;;;;;;;;;;;;;;;;5042725;28;19948;-62
2023/03/25 13:38:09;;;;;;;;;;;;;;;;;;5052996;28;19928;-63
2023/03/25 13:40:35;;;;;;;;;;;;;;;;;;5053057;28;19921;-62
2023/03/25 13:43:01;;;;;;;;;;;;;;;;;;5052619;28;19925;-63
2023/03/25 13:45:27;;;;;;;;;;;;;;;;;;5053652;28;19934;-63
2023/03/25 13:47:53;;;;;;;;;;;;;;;;;;5052942;28;19925;-63
2023/03/25 13:50:19;;;;;;;;;;;;;;;;;;5053308;28;20051;-63
2023/03/25 13:52:45;;;;;;;;;;;;;;;;;;5053310;28;19921;-63
2023/03/25 13:55:11;;;;;;;;;;;;;;;;;;5035191;28;20027;-64
2023/03/25 13:57:37;;;;;;;;;;;;;;;;;;5053928;28;19927;-63
2023/03/25 14:00:06;;;;;;;;;;;;;;;;;;5052548;28;19929;-63
2023/03/25 14:02:31;;;;;;;;;;;;;;;;;;5068539;28;19970;-64
2023/03/25 14:04:57;;;;;;;;;;;;;;;;;;5065069;28;20307;-64
2023/03/25 14:07:23;;;;;;;;;;;;;;;;;;5073787;28;20265;-64
2023/03/25 14:09:51;;;;;;;;;;;;;;;;;;5082138;28;19921;-63
2023/03/25 14:12:17;;;;;;;;;;;;;;;;;;5076767;28;19921;-64
2023/03/25 14:14:43;;;;;;;;;;;;;;;;;;5058631;28;19928;-64
2023/03/25 14:17:09;;;;;;;;;;;;;;;;;;5089279;28;19927;-63
2023/03/25 14:19:37;;;;;;;;;;;;;;;;;;5080599;28;19920;-63
2023/03/25 14:22:03;;;;;;;;;;;;;;;;;;5073365;28;20321;-64
2023/03/25 14:24:29;;;;;;;;;;;;;;;;;;5053920;28;20034;-64
2023/03/25 14:26:56;;;;;;;;;;;;;;;;;;5053772;28;20014;-63
2023/03/25 14:29:22;;;;;;;;;;;;;;;;;;5071874;28;19928;-63
2023/03/25 14:31:48;;;;;;;;;;;;;;;;;;5053694;28;19925;-64
2023/03/25 14:34:14;;;;;;;;;;;;;;;;;;5053372;28;20281;-64
2023/03/25 14:36:41;;;;;;;;;;;;;;;;;;5070931;28;20392;-64
2023/03/25 14:39:06;;;;;;;;;;;;;;;;;;5051694;28;19924;-63
2023/03/25 14:41:32;;;;;;;;;;;;;;;;;;5052122;28;19931;-64
2023/03/25 14:44:00;;;;;;;;;;;;;;;;;;5033885;28;20009;-63
2023/03/25 14:46:28;;;;;;;;;;;;;;;;;;5051680;28;20015;-64
2023/03/25 14:48:54;;;;;;;;;;;;;;;;;;5052023;28;19920;-64
2023/03/25 14:51:20;;;;;;;;;;;;;;;;;;5055491;28;19921;-64
2023/03/25 14:53:46;;;;;;;;;;;;;;;;;;5072019;28;19936;-64
2023/03/25 14:56:12;;;;;;;;;;;;;;;;;;5071314;28;19928;-64
2023/03/25 14:58:38;;;;;;;;;;;;;;;;;;5071235;28;20270;-64
2023/03/25 15:01:04;;;;;;;;;;;;;;;;;;5071595;28;19921;-64
2023/03/25 15:03:30;;;;;;;;;;;;;;;;;;5071073;28;19920;-64
2023/03/25 15:05:56;;;;;;;;;;;;;;;;;;5070774;28;20262;-64
2023/03/25 15:08:22;;;;;;;;;;;;;;;;;;5031463;28;20011;-64
2023/03/25 15:10:47;;;;;;;;;;;;;;;;;;5070683;28;20508;-64
2023/03/25 15:13:13;;;;;;;;;;;;;;;;;;5066596;28;19925;-68
2023/03/25 15:15:40;;;;;;;;;;;;;;;;;;5067572;28;19947;-68
2023/03/25 15:18:05;;;;;;;;;;;;;;;;;;5073688;28;20277;-67
2023/03/25 15:20:34;;;;;;;;;;;;;;;;;;5056809;28;19920;-68
2023/03/25 15:23:00;;;;;;;;;;;;;;;;;;5063203;28;19927;-66
2023/03/25 15:25:26;;;;;;;;;;;;;;;;;;5062900;28;19924;-66
2023/03/25 15:27:52;;;;;;;;;;;;;;;;;;5086473;28;19927;-66
2023/03/25 15:30:18;;;;;;;;;;;;;;;;;;5068359;28;20007;-66
2023/03/25 15:32:44;;;;;;;;;;;;;;;;;;5073683;28;20617;-66
2023/03/25 15:35:10;;;;;;;;;;;;;;;;;;5079218;28;20010;-66
2023/03/25 15:37:36;;;;;;;;;;;;;;;;;;5056623;28;19920;-67
2023/03/25 15:40:05;;;;;;;;;;;;;;;;;;5059184;28;19978;-66
2023/03/25 15:42:31;;;;;;;;;;;;;;;;;;5091320;28;20007;-66
2023/03/25 15:44:57;;;;;;;;;;;;;;;;;;5094800;28;20518;-66
2023/03/25 15:47:23;;;;;;;;;;;;;;;;;;5066182;28;19924;-66
2023/03/25 15:49:49;;;;;;;;;;;;;;;;;;5088207;28;19924;-66
2023/03/25 15:52:15;;;;;;;;;;;;;;;;;;5088853;28;20385;-67
2023/03/25 15:54:41;;;;;;;;;;;;;;;;;;5087073;28;19927;-67
2023/03/25 15:57:08;;;;;;;;;;;;;;;;;;5084499;28;19927;-66
2023/03/25 15:59:37;;;;;;;;;;;;;;;;;;5084674;28;20031;-66
2023/03/25 16:02:02;;;;;;;;;;;;;;;;;;5058018;28;19932;-65
2023/03/25 16:04:28;;;;;;;;;;;;;;;;;;5068090;28;19938;-66
2023/03/25 16:06:55;;;;;;;;;;;;;;;;;;5074221;28;20369;-66
2023/03/25 16:09:21;;;;;;;;;;;;;;;;;;5072158;28;20254;-66
2023/03/25 16:11:47;;;;;;;;;;;;;;;;;;5088761;28;19920;-66
2023/03/25 16:14:13;;;;;;;;;;;;;;;;;;5086234;28;19982;-66
2023/03/25 16:16:39;;;;;;;;;;;;;;;;;;5090873;28;19924;-66
2023/03/25 16:19:05;;;;;;;;;;;;;;;;;;5054493;28;19920;-66
2023/03/25 16:21:31;;;;;;;;;;;;;;;;;;5064997;28;19923;-66
2023/03/25 16:23:57;;;;;;;;;;;;;;;;;;5076902;28;20251;-66
2023/03/25 16:26:23;;;;;;;;;;;;;;;;;;5073130;28;19931;-66
2023/03/25 16:28:49;;;;;;;;;;;;;;;;;;5058782;28;19927;-66
2023/03/25 16:31:15;;;;;;;;;;;;;;;;;;5085538;28;19924;-66
2023/03/25 16:33:41;;;;;;;;;;;;;;;;;;5087036;28;19932;-66
2023/03/25 16:36:07;;;;;;;;;;;;;;;;;;5080374;28;20289;-66
2023/03/25 16:38:32;;;;;;;;;;;;;;;;;;5089210;28;19931;-66